VDPP Airport Information

Runway Information
Runway 05 Length 9843 ft width 144 ft
Elevation 40 ft Threshold 0 ft Heading 46
Runway 23 Length 9843 ft Width 144 ft
Elevation 37 ft Threshold 492 ft Heading 226
Airport Frequencies
Type ACC Name ACC Frequency 127.5 MHZ
Type APP Name APP Frequency 123.8 MHZ
Type ATIS Name ATIS Frequency 127.25 MHZ
Type TWR Name TWR Frequency 118 MHZ
Airport Navaids
Type VOR-DME Name Phnom Penh Frequency 114300 KHZ
Type NDB Name Phnom Penh Frequency 376 KHZ
Airport Weather Information & NOTAM
ADDS - METARS form results

(1020 UTC 23 March 2019)
Data provider http://aviationweather.gov/metar/data/
 
METAR text: VDPP 231000Z 16009KT 9999 SCT015 FEW017CB 35/23 Q1005 CB W
Conditions at: VDPP (PHNOM-PENH/POCHE, KH) observed 1000 UTC 23 March 2019
Temperature: 35.0°C (95°F)
Dewpoint: 23.0°C (73°F) [RH = 50%]
Pressure (altimeter): 29.68 inches Hg (1005.0 mb)
Winds: from the SSE (160 degrees) at 10 MPH (9 knots; 4.6 m/s)
Visibility: 6 or more miles (10+ km)
Ceiling: at least 12,000 feet AGL
Clouds: scattered clouds at 1500 feet AGL
few clouds at 1700 feet AGL
Weather: no significant weather observed at this time

METAR text: VDPP 230930Z 15009KT 9999 SCT015 FEW017CB 36/23 Q1005 CB W
Conditions at: VDPP (PHNOM-PENH/POCHE, KH) observed 0930 UTC 23 March 2019
Temperature: 36.0°C (97°F)
Dewpoint: 23.0°C (73°F) [RH = 47%]
Pressure (altimeter): 29.68 inches Hg (1005.0 mb)
Winds: from the SSE (150 degrees) at 10 MPH (9 knots; 4.6 m/s)
Visibility: 6 or more miles (10+ km)
Ceiling: at least 12,000 feet AGL
Clouds: scattered clouds at 1500 feet AGL
few clouds at 1700 feet AGL
Weather: no significant weather observed at this time

Forecast for: VDPP (PHNOM-PENH/POCHE, KH)
Text: TAF VDPP 230500Z 2306/2324 15007KT 9999 SCT017
Forecast period: 0600 UTC 23 March 2019 to 0000 UTC 24 March 2019
Forecast type: FROM: standard forecast or significant change
Winds: from the SSE (150 degrees) at 8 MPH (7 knots; 3.6 m/s)
Visibility: 6 or more miles 10+ km)
Ceiling: at least 12,000 feet AGL
Clouds: scattered clouds at 1700 feet AGL
Weather: no significant weather forecast for this period
Text: TEMPO 2307/2312 SCT015 FEW017CB
Forecast period: 0700 to 1200 UTC 23 March 2019
Forecast type: TEMPORARY: The following changes expected for less than half the time period
Visibility: missing
Ceiling: at least 12,000 feet AGL
Clouds: scattered clouds at 1500 feet AGL
few clouds at 1700 feet AGL
Weather: no significant weather forecast for this period